createdAt,value
2018-06-02T04:00:17.478Z,9.90
2018-06-02T04:02:43.282Z,11.20
2018-06-02T04:05:09.084Z,11.33
2018-06-02T04:07:34.874Z,11.20
2018-06-02T04:10:00.657Z,10.73
2018-06-02T04:12:26.454Z,10.20
2018-06-02T04:14:52.256Z,11.73
2018-06-02T04:17:18.039Z,10.83
2018-06-02T04:19:43.845Z,12.13
2018-06-02T04:22:09.629Z,10.70
2018-06-02T04:24:35.425Z,11.50
2018-06-02T04:27:01.213Z,11.77
2018-06-02T04:29:26.989Z,11.93
2018-06-02T04:31:52.791Z,11.90
2018-06-02T04:34:18.563Z,12.00
2018-06-02T04:36:44.381Z,12.07
2018-06-02T04:39:10.177Z,11.23
2018-06-02T04:41:35.998Z,11.60
2018-06-02T04:44:01.770Z,11.20
2018-06-02T04:46:27.577Z,10.50
2018-06-02T04:48:53.369Z,10.50
2018-06-02T04:51:19.164Z,11.30
2018-06-02T04:53:44.960Z,11.20
2018-06-02T04:56:10.741Z,10.33
2018-06-02T04:58:36.541Z,10.73
2018-06-02T05:01:02.317Z,11.03
2018-06-02T05:03:28.129Z,11.30
2018-06-02T05:05:53.905Z,10.73
2018-06-02T05:08:19.687Z,10.50
2018-06-02T05:10:45.468Z,10.37
2018-06-02T05:13:11.270Z,10.73
2018-06-02T05:15:37.059Z,10.40
2018-06-02T05:18:02.857Z,9.27
2018-06-02T05:20:28.789Z,8.20
2018-06-02T05:22:54.593Z,9.17
2018-06-02T05:25:20.383Z,9.10
2018-06-02T05:27:46.200Z,9.63
2018-06-02T05:30:11.968Z,9.00
2018-06-02T05:32:37.763Z,10.23
2018-06-02T05:35:03.564Z,9.93
2018-06-02T05:37:29.355Z,8.63
2018-06-02T05:39:55.174Z,9.23
2018-06-02T05:42:20.933Z,9.07
2018-06-02T05:44:46.750Z,9.27
2018-06-02T05:47:12.540Z,8.70
2018-06-02T05:49:38.344Z,8.80
2018-06-02T05:52:04.139Z,7.90
2018-06-02T05:54:29.942Z,8.03
2018-06-02T05:56:55.729Z,7.73
2018-06-02T05:59:21.530Z,8.00
2018-06-02T06:01:47.305Z,8.20
2018-06-02T06:04:13.086Z,9.07
2018-06-02T06:06:38.860Z,10.20
2018-06-02T06:09:04.680Z,8.60
2018-06-02T06:11:30.467Z,8.30
2018-06-02T06:13:56.285Z,7.90
2018-06-02T06:16:22.068Z,8.33
2018-06-02T06:18:47.870Z,7.57
2018-06-02T06:21:13.669Z,9.57
2018-06-02T06:23:39.465Z,8.90
2018-06-02T06:26:05.286Z,8.77
2018-06-02T06:28:31.069Z,7.60
2018-06-02T06:30:56.867Z,8.03
2018-06-02T06:33:22.662Z,8.80
2018-06-02T06:35:48.458Z,8.77
2018-06-02T06:38:14.269Z,7.43
2018-06-02T06:40:40.084Z,7.80
2018-06-02T06:43:05.864Z,8.20
2018-06-02T06:45:31.659Z,8.23
2018-06-02T06:47:57.440Z,8.40
2018-06-02T06:50:23.225Z,8.90
2018-06-02T06:52:49.060Z,7.87
2018-06-02T06:55:14.838Z,8.33
2018-06-02T06:57:40.648Z,8.40
2018-06-02T07:00:06.441Z,7.87
2018-06-02T07:02:32.232Z,7.07
2018-06-02T07:04:58.033Z,7.37
2018-06-02T07:07:23.839Z,8.10
2018-06-02T07:09:49.629Z,7.13
2018-06-02T07:12:15.430Z,7.90
2018-06-02T07:14:41.250Z,7.17
2018-06-02T07:17:07.071Z,7.40
2018-06-02T07:19:32.862Z,6.53
2018-06-02T07:21:58.740Z,6.50
2018-06-02T07:24:24.539Z,6.33
2018-06-02T07:26:50.350Z,6.77
2018-06-02T07:29:16.133Z,7.03
2018-06-02T07:31:41.918Z,6.10
2018-06-02T07:34:07.723Z,6.13
2018-06-02T07:36:33.522Z,5.77
2018-06-02T07:38:59.341Z,6.40
2018-06-02T07:41:25.146Z,6.73
2018-06-02T07:43:50.944Z,5.80
2018-06-02T07:46:16.731Z,6.17
2018-06-02T07:48:42.521Z,5.87
2018-06-02T07:51:09.174Z,5.87
2018-06-02T07:53:34.971Z,6.00
2018-06-02T07:56:00.740Z,5.27
2018-06-02T07:58:26.546Z,5.30
2018-06-02T08:00:52.349Z,4.77
2018-06-02T08:03:18.144Z,4.63
2018-06-02T08:05:43.938Z,4.67
2018-06-02T08:08:09.740Z,4.60
2018-06-02T08:10:35.565Z,4.47
2018-06-02T08:13:01.358Z,4.73
2018-06-02T08:15:27.161Z,5.17
2018-06-02T08:17:52.970Z,5.17
2018-06-02T08:20:18.813Z,3.80
2018-06-02T08:22:44.619Z,4.17
2018-06-02T08:25:10.419Z,4.10
2018-06-02T08:27:36.209Z,4.57
2018-06-02T08:30:02.014Z,4.43
2018-06-02T08:32:27.854Z,3.70
2018-06-02T08:34:53.666Z,4.10
2018-06-02T08:37:19.470Z,4.40
2018-06-02T08:39:45.287Z,4.90
2018-06-02T08:42:11.090Z,3.70
2018-06-02T08:44:36.934Z,3.80
2018-06-02T08:47:02.712Z,4.30
2018-06-02T08:49:28.541Z,4.33
2018-06-02T08:51:54.357Z,3.83
2018-06-02T08:54:20.186Z,4.03
2018-06-02T08:56:45.982Z,3.80
2018-06-02T08:59:11.804Z,3.80
2018-06-02T09:01:37.607Z,3.43
2018-06-02T09:04:03.414Z,4.07
2018-06-02T09:06:29.254Z,3.70
2018-06-02T09:08:55.016Z,3.33
2018-06-02T09:11:20.819Z,3.20
2018-06-02T09:13:46.616Z,3.50
2018-06-02T09:16:12.414Z,3.37
2018-06-02T09:18:38.200Z,2.80
2018-06-02T09:21:04.013Z,3.20
2018-06-02T09:23:29.806Z,3.43
2018-06-02T09:25:55.613Z,3.37
2018-06-02T09:28:21.410Z,3.33
2018-06-02T09:30:47.220Z,3.83
2018-06-02T09:33:13.003Z,3.20
2018-06-02T09:35:38.810Z,3.50
2018-06-02T09:38:04.631Z,2.83
2018-06-02T09:40:30.422Z,3.53
2018-06-02T09:42:56.210Z,3.10
2018-06-02T09:45:22.034Z,3.93
2018-06-02T09:47:47.872Z,3.57
2018-06-02T09:50:13.665Z,3.90
2018-06-02T09:52:39.470Z,3.10
2018-06-02T09:55:05.260Z,2.90
2018-06-02T09:57:31.085Z,3.03
2018-06-02T09:59:56.904Z,3.77
2018-06-02T10:02:22.738Z,3.03
2018-06-02T10:04:48.531Z,3.20
2018-06-02T10:07:14.332Z,3.33
2018-06-02T10:09:40.116Z,3.17
2018-06-02T10:12:05.922Z,3.00
2018-06-02T10:14:31.741Z,2.70
2018-06-02T10:16:57.566Z,2.90
2018-06-02T10:19:23.356Z,3.23
2018-06-02T10:21:49.198Z,3.07
2018-06-02T10:24:14.991Z,3.10
2018-06-02T10:26:40.784Z,2.90
2018-06-02T10:29:06.568Z,3.03
2018-06-02T10:31:32.354Z,2.97
2018-06-02T10:33:58.124Z,2.80
2018-06-02T10:36:23.907Z,2.73
2018-06-02T10:38:49.702Z,2.70
2018-06-02T10:41:15.594Z,3.07
2018-06-02T10:43:41.419Z,3.00
2018-06-02T10:46:07.198Z,3.30
2018-06-02T10:48:33.018Z,2.17
2018-06-02T10:50:58.806Z,2.97
2018-06-02T10:53:24.609Z,3.50
2018-06-02T10:55:50.405Z,2.33
2018-06-02T10:58:16.205Z,2.77
2018-06-02T11:00:41.998Z,2.33
2018-06-02T11:03:07.794Z,2.30
2018-06-02T11:05:33.601Z,2.63
2018-06-02T11:07:59.379Z,2.30
2018-06-02T11:10:25.183Z,2.83
2018-06-02T11:12:50.982Z,2.90
2018-06-02T11:15:16.782Z,2.90
2018-06-02T11:17:42.583Z,3.10
2018-06-02T11:20:08.357Z,2.40
2018-06-02T11:22:34.156Z,2.33
2018-06-02T11:24:59.966Z,2.43
2018-06-02T11:27:25.758Z,2.30
2018-06-02T11:29:51.542Z,2.17
2018-06-02T11:32:17.336Z,2.30
2018-06-02T11:34:43.105Z,2.30
2018-06-02T11:37:08.924Z,2.40
2018-06-02T11:39:34.713Z,2.60
2018-06-02T11:42:00.513Z,2.50
2018-06-02T11:44:26.310Z,2.50
2018-06-02T11:46:52.083Z,2.70
2018-06-02T11:49:17.861Z,2.20
2018-06-02T11:51:43.686Z,2.43
2018-06-02T11:54:09.485Z,2.20
2018-06-02T11:56:35.270Z,2.60
2018-06-02T11:59:01.064Z,2.60
2018-06-02T12:01:26.853Z,2.90
2018-06-02T12:03:52.646Z,2.80
2018-06-02T12:06:18.441Z,2.40
2018-06-02T12:08:44.219Z,2.80
2018-06-02T12:11:10.021Z,2.53
2018-06-02T12:13:35.833Z,2.40
2018-06-02T12:16:01.629Z,2.17
2018-06-02T12:18:27.413Z,2.47
2018-06-02T12:20:53.205Z,2.40
2018-06-02T12:23:19.062Z,3.17
2018-06-02T12:25:44.865Z,3.23
2018-06-02T12:28:10.666Z,2.83
2018-06-02T12:30:36.458Z,2.87
2018-06-02T12:33:02.252Z,3.03
2018-06-02T12:35:28.072Z,2.43
2018-06-02T12:37:53.878Z,2.20
2018-06-02T12:40:19.717Z,2.50
2018-06-02T12:42:45.526Z,2.33
2018-06-02T12:45:11.317Z,2.20
2018-06-02T12:47:37.186Z,2.57
2018-06-02T12:50:02.974Z,2.13
2018-06-02T12:52:28.769Z,2.77
2018-06-02T12:54:54.577Z,2.63
2018-06-02T12:57:20.386Z,2.83
2018-06-02T12:59:46.170Z,2.60
2018-06-02T13:02:12.041Z,2.77
2018-06-02T13:04:37.835Z,2.90
2018-06-02T13:07:03.661Z,3.20
2018-06-02T13:09:29.471Z,2.67
2018-06-02T13:11:55.365Z,2.93
2018-06-02T13:14:21.180Z,2.93
2018-06-02T13:16:46.985Z,2.63
2018-06-02T13:19:12.777Z,3.20
2018-06-02T13:21:38.563Z,2.83
2018-06-02T13:24:04.355Z,2.80
2018-06-02T13:26:30.131Z,2.60
2018-06-02T13:28:55.916Z,3.03
2018-06-02T13:31:21.706Z,3.20
2018-06-02T13:33:47.505Z,2.93
2018-06-02T13:36:13.308Z,2.70
2018-06-02T13:38:39.133Z,2.57
2018-06-02T13:41:04.944Z,3.20
2018-06-02T13:43:30.718Z,3.00
2018-06-02T13:45:56.513Z,2.90
2018-06-02T13:48:22.305Z,3.20
2018-06-02T13:50:48.102Z,3.30
2018-06-02T13:53:13.892Z,3.50
2018-06-02T13:55:39.685Z,3.37
2018-06-02T13:58:05.483Z,3.40
2018-06-02T14:00:31.281Z,3.03
2018-06-02T14:02:57.061Z,2.97
2018-06-02T14:05:22.865Z,3.10
2018-06-02T14:07:48.673Z,3.30
2018-06-02T14:10:14.464Z,3.83
2018-06-02T14:12:40.273Z,3.47
2018-06-02T14:15:06.079Z,3.57
2018-06-02T14:17:31.866Z,3.60
2018-06-02T14:19:57.658Z,3.90
2018-06-02T14:22:23.442Z,3.23
2018-06-02T14:24:49.214Z,3.73
2018-06-02T14:27:15.018Z,3.27
2018-06-02T14:29:40.793Z,3.60
2018-06-02T14:32:06.580Z,3.50
2018-06-02T14:34:32.379Z,3.40
2018-06-02T14:36:58.173Z,3.40
2018-06-02T14:39:23.955Z,3.43
2018-06-02T14:41:49.763Z,3.23
2018-06-02T14:44:16.566Z,3.80
2018-06-02T14:46:42.350Z,3.77
2018-06-02T14:49:08.126Z,3.30
2018-06-02T14:51:33.933Z,3.30
2018-06-02T14:53:59.749Z,3.23
2018-06-02T14:56:25.561Z,3.00
2018-06-02T14:58:51.374Z,3.30
2018-06-02T15:01:17.162Z,2.90
2018-06-02T15:03:42.965Z,3.10
2018-06-02T15:06:08.746Z,3.07
2018-06-02T15:08:34.549Z,3.00
2018-06-02T15:11:00.358Z,3.20
2018-06-02T15:13:26.158Z,2.97
2018-06-02T15:15:51.971Z,3.47
2018-06-02T15:18:17.763Z,3.23
2018-06-02T15:20:43.541Z,3.30
2018-06-02T15:23:09.386Z,3.03
2018-06-02T15:25:35.222Z,3.57
2018-06-02T15:28:01.031Z,3.20
2018-06-02T15:30:26.849Z,2.57
2018-06-02T15:32:52.667Z,3.40
2018-06-02T15:35:18.474Z,3.10
2018-06-02T15:37:44.310Z,2.90
2018-06-02T15:40:10.154Z,3.70
2018-06-02T15:42:35.949Z,2.73
2018-06-02T15:45:01.785Z,2.87
2018-06-02T15:47:27.605Z,3.40
2018-06-02T15:49:53.444Z,3.20
2018-06-02T15:52:19.262Z,3.33
2018-06-02T15:54:45.077Z,3.00
2018-06-02T15:57:10.922Z,3.00
2018-06-02T15:59:36.779Z,2.73
2018-06-02T16:02:02.589Z,2.90
2018-06-02T16:04:28.400Z,2.70
2018-06-02T16:06:54.198Z,3.07
2018-06-02T16:09:20.003Z,2.67
2018-06-02T16:11:45.811Z,2.50
2018-06-02T16:14:11.612Z,3.40
2018-06-02T16:16:37.470Z,3.10
2018-06-02T16:19:03.286Z,2.90
2018-06-02T16:21:29.078Z,2.97
2018-06-02T16:23:54.889Z,3.30
2018-06-02T16:26:20.669Z,3.13
2018-06-02T16:28:46.446Z,3.70
2018-06-02T16:31:12.233Z,4.20
2018-06-02T16:33:38.069Z,4.00
2018-06-02T16:36:03.901Z,3.10
2018-06-02T16:38:29.691Z,3.50
2018-06-02T16:40:55.507Z,3.97
2018-06-02T16:43:21.296Z,3.60
2018-06-02T16:45:47.105Z,3.70
2018-06-02T16:48:12.912Z,3.77
2018-06-02T16:50:38.704Z,3.63
2018-06-02T16:53:04.493Z,3.67
2018-06-02T16:55:30.297Z,3.83
2018-06-02T16:57:56.123Z,3.70
2018-06-02T17:00:21.945Z,3.03
2018-06-02T17:02:47.737Z,3.17
2018-06-02T17:05:13.551Z,3.13
2018-06-02T17:07:39.386Z,3.53
2018-06-02T17:10:05.193Z,3.30
2018-06-02T17:12:31.073Z,3.07
2018-06-02T17:14:56.862Z,3.67
2018-06-02T17:17:22.680Z,3.60
2018-06-02T17:19:48.513Z,3.50
2018-06-02T17:22:14.318Z,3.17
2018-06-02T17:24:40.152Z,3.73
2018-06-02T17:27:05.965Z,3.43
2018-06-02T17:29:31.750Z,3.40
2018-06-02T17:31:57.577Z,3.70
2018-06-02T17:34:23.372Z,3.90
2018-06-02T17:36:49.177Z,3.63
2018-06-02T17:39:14.969Z,3.67
2018-06-02T17:41:40.754Z,3.20
2018-06-02T17:44:06.543Z,3.10
2018-06-02T17:46:32.326Z,3.80
2018-06-02T17:48:58.126Z,3.80
2018-06-02T17:51:23.929Z,3.97
2018-06-02T17:53:49.746Z,3.80
2018-06-02T17:56:15.549Z,3.60
2018-06-02T17:58:41.370Z,3.70
2018-06-02T18:01:07.177Z,4.20
2018-06-02T18:03:32.990Z,3.57
2018-06-02T18:05:58.781Z,4.00
2018-06-02T18:08:24.590Z,3.23
2018-06-02T18:10:50.428Z,3.70
2018-06-02T18:13:16.265Z,3.43
2018-06-02T18:15:42.034Z,3.20
2018-06-02T18:18:07.842Z,3.63
2018-06-02T18:20:33.658Z,3.90
2018-06-02T18:22:59.436Z,4.40
2018-06-02T18:25:25.228Z,4.10
2018-06-02T18:27:51.014Z,4.80
2018-06-02T18:30:16.865Z,4.50
2018-06-02T18:32:42.638Z,4.20
2018-06-02T18:35:08.433Z,4.30
2018-06-02T18:37:34.246Z,5.03
2018-06-02T18:40:00.064Z,5.03
2018-06-02T18:42:25.882Z,5.50
2018-06-02T18:44:57.878Z,7.20
2018-06-02T18:47:37.167Z,7.80
2018-06-02T18:50:02.987Z,7.53
2018-06-02T18:52:28.760Z,6.43
2018-06-02T18:54:54.571Z,5.20
2018-06-02T18:57:20.394Z,5.50
2018-06-02T18:59:46.212Z,5.10
2018-06-02T19:02:12.033Z,5.70
2018-06-02T19:04:37.843Z,5.70
2018-06-02T19:07:03.668Z,5.50
2018-06-02T19:09:29.470Z,5.53
2018-06-02T19:11:55.373Z,4.83
2018-06-02T19:14:21.156Z,7.90
2018-06-02T19:16:46.979Z,5.63
2018-06-02T19:19:12.761Z,4.73
2018-06-02T19:21:38.554Z,5.03
2018-06-02T19:24:41.194Z,4.93
2018-06-02T19:27:08.218Z,4.33
2018-06-02T19:29:35.231Z,4.70
2018-06-02T19:32:02.428Z,5.27
2018-06-02T19:34:29.450Z,4.60
2018-06-02T19:36:56.476Z,5.50
2018-06-02T19:39:23.498Z,5.40
2018-06-02T19:41:50.534Z,5.90
2018-06-02T19:44:17.575Z,5.57
2018-06-02T19:46:44.623Z,6.27
2018-06-02T19:49:11.648Z,5.83
2018-06-02T19:51:38.683Z,5.30
2018-06-02T19:54:05.730Z,6.03
2018-06-02T19:56:32.737Z,5.50
2018-06-02T19:58:59.793Z,5.23
2018-06-02T20:01:26.867Z,5.33
2018-06-02T20:03:53.870Z,5.60
2018-06-02T20:06:20.910Z,5.20
2018-06-02T20:08:47.944Z,4.70
2018-06-02T20:11:15.011Z,6.13
2018-06-02T20:13:42.081Z,6.03
2018-06-02T20:16:09.105Z,5.20
2018-06-02T20:18:36.154Z,5.70
2018-06-02T20:21:03.193Z,5.80
2018-06-02T20:23:30.217Z,5.77
2018-06-02T20:25:57.298Z,5.57
2018-06-02T20:28:24.333Z,6.13
2018-06-02T20:30:51.386Z,7.87
2018-06-02T20:33:18.436Z,7.33
2018-06-02T20:35:45.535Z,7.30
2018-06-02T20:38:12.575Z,6.90
2018-06-02T20:40:39.626Z,7.23
2018-06-02T20:43:06.660Z,6.53
2018-06-02T20:45:33.673Z,7.30
2018-06-02T20:48:00.709Z,6.83
2018-06-02T20:50:27.740Z,6.77
2018-06-02T20:52:54.787Z,7.50
2018-06-02T20:55:21.826Z,6.37
2018-06-02T20:57:48.873Z,7.30
2018-06-02T21:00:15.920Z,7.50
2018-06-02T21:02:42.980Z,7.70
2018-06-02T21:05:10.020Z,8.80
2018-06-02T21:07:37.051Z,9.53
2018-06-02T21:10:04.098Z,10.20
2018-06-02T21:12:31.146Z,10.40
2018-06-02T21:14:58.241Z,10.50
2018-06-02T21:17:25.341Z,9.67
2018-06-02T21:19:52.558Z,11.27
2018-06-02T21:22:19.669Z,10.20
2018-06-02T21:24:46.738Z,11.30
2018-06-02T21:27:13.790Z,9.70
2018-06-02T21:29:40.815Z,9.50
2018-06-02T21:32:07.929Z,10.10
2018-06-02T21:34:34.939Z,8.77
2018-06-02T21:37:01.986Z,10.87
2018-06-02T21:39:29.035Z,9.80
2018-06-02T21:41:56.089Z,8.83
2018-06-02T21:44:23.127Z,8.67
2018-06-02T21:46:50.184Z,10.37
2018-06-02T21:49:17.204Z,10.33
2018-06-02T21:51:44.285Z,10.43
2018-06-02T21:54:11.299Z,9.53
2018-06-02T21:56:38.349Z,9.70
2018-06-02T21:59:05.394Z,9.63
2018-06-02T22:01:32.406Z,9.40
2018-06-02T22:03:59.426Z,9.13
2018-06-02T22:06:26.514Z,7.93
2018-06-02T22:08:54.196Z,9.37
2018-06-02T22:11:21.291Z,9.27
2018-06-02T22:13:48.437Z,8.10
2018-06-02T22:16:15.535Z,8.23
2018-06-02T22:18:42.590Z,8.53
2018-06-02T22:21:09.653Z,8.83
2018-06-02T22:23:36.684Z,9.23
2018-06-02T22:26:03.734Z,9.47
2018-06-02T22:28:30.789Z,7.83
2018-06-02T22:30:57.871Z,8.70
2018-06-02T22:33:24.890Z,8.53
2018-06-02T22:35:51.965Z,7.20
2018-06-02T22:38:19.027Z,8.53
2018-06-02T22:40:46.098Z,8.23
2018-06-02T22:43:13.153Z,9.13
2018-06-02T22:45:40.233Z,8.23
2018-06-02T22:48:07.291Z,8.00
2018-06-02T22:50:34.366Z,7.47
2018-06-02T22:53:02.274Z,8.40
2018-06-02T22:55:29.320Z,7.80
2018-06-02T22:57:56.398Z,7.90
2018-06-02T23:00:23.574Z,8.67
2018-06-02T23:02:50.681Z,8.90
2018-06-02T23:05:17.778Z,9.13
2018-06-02T23:07:44.898Z,11.40
2018-06-02T23:10:11.997Z,9.67
2018-06-02T23:12:39.054Z,9.33
2018-06-02T23:15:06.130Z,10.30
2018-06-02T23:17:33.195Z,9.00
2018-06-02T23:20:00.265Z,7.70
2018-06-02T23:22:39.250Z,9.90
2018-06-02T23:27:40.175Z,8.53
2018-06-02T23:30:07.231Z,9.00
2018-06-02T23:32:34.273Z,10.10
2018-06-02T23:35:01.327Z,8.80
2018-06-02T23:37:28.393Z,8.70
2018-06-02T23:39:55.474Z,9.10
2018-06-02T23:42:22.602Z,8.50
2018-06-02T23:44:49.694Z,8.30
2018-06-02T23:47:16.752Z,9.27
2018-06-02T23:49:43.829Z,8.70
2018-06-02T23:52:10.926Z,10.50
2018-06-02T23:54:38.014Z,9.43
2018-06-02T23:57:05.077Z,8.70
2018-06-02T23:59:32.136Z,9.10
